sensor_id;sensor_type;location;lat;lon;timestamp;temperature;humidity
19652;DHT22;9974;52.146;14.668;2023-09-12T00:04:01;16.70;99.90
19652;DHT22;9974;52.146;14.668;2023-09-12T00:06:27;16.30;99.90
19652;DHT22;9974;52.146;14.668;2023-09-12T00:11:18;16.30;99.90
19652;DHT22;9974;52.146;14.668;2023-09-12T00:13:44;15.80;99.90
19652;DHT22;9974;52.146;14.668;2023-09-12T00:16:10;16.40;99.90
19652;DHT22;9974;52.146;14.668;2023-09-12T00:18:37;16.00;99.90
19652;DHT22;9974;52.146;14.668;2023-09-12T00:21:03;18.00;99.90
19652;DHT22;9974;52.146;14.668;2023-09-12T00:23:29;16.40;99.90
19652;DHT22;9974;52.146;14.668;2023-09-12T00:25:56;16.70;99.90
19652;DHT22;9974;52.146;14.668;2023-09-12T00:28:23;16.60;99.90
19652;DHT22;9974;52.146;14.668;2023-09-12T00:30:48;16.80;99.90
19652;DHT22;9974;52.146;14.668;2023-09-12T00:33:14;15.70;99.90
19652;DHT22;9974;52.146;14.668;2023-09-12T00:35:40;16.00;99.90
19652;DHT22;9974;52.146;14.668;2023-09-12T00:38:08;15.90;99.90
19652;DHT22;9974;52.146;14.668;2023-09-12T00:40:34;16.20;99.90
19652;DHT22;9974;52.146;14.668;2023-09-12T00:43:00;15.80;99.90
19652;DHT22;9974;52.146;14.668;2023-09-12T00:45:25;16.40;99.90
19652;DHT22;9974;52.146;14.668;2023-09-12T00:47:52;16.20;99.90
19652;DHT22;9974;52.146;14.668;2023-09-12T00:50:19;16.30;99.90
19652;DHT22;9974;52.146;14.668;2023-09-12T00:52:46;15.90;99.90
19652;DHT22;9974;52.146;14.668;2023-09-12T00:55:13;16.00;99.90
19652;DHT22;9974;52.146;14.668;2023-09-12T00:57:39;16.10;99.90
19652;DHT22;9974;52.146;14.668;2023-09-12T01:00:05;16.30;99.90
19652;DHT22;9974;52.146;14.668;2023-09-12T01:02:44;16.30;99.90
19652;DHT22;9974;52.146;14.668;2023-09-12T01:05:13;15.70;99.90
19652;DHT22;9974;52.146;14.668;2023-09-12T01:07:40;15.80;99.90
19652;DHT22;9974;52.146;14.668;2023-09-12T01:10:07;16.40;99.90
19652;DHT22;9974;52.146;14.668;2023-09-12T01:14:59;16.00;99.90
19652;DHT22;9974;52.146;14.668;2023-09-12T01:17:26;15.40;99.90
19652;DHT22;9974;52.146;14.668;2023-09-12T01:19:52;16.00;99.90
19652;DHT22;9974;52.146;14.668;2023-09-12T01:25:26;15.80;99.90
19652;DHT22;9974;52.146;14.668;2023-09-12T01:28:16;16.00;99.90
19652;DHT22;9974;52.146;14.668;2023-09-12T01:30:42;15.90;99.90
19652;DHT22;9974;52.146;14.668;2023-09-12T01:35:37;15.70;99.90
19652;DHT22;9974;52.146;14.668;2023-09-12T01:38:03;15.70;99.90
19652;DHT22;9974;52.146;14.668;2023-09-12T01:40:51;15.80;99.90
19652;DHT22;9974;52.146;14.668;2023-09-12T01:43:19;15.40;99.90
19652;DHT22;9974;52.146;14.668;2023-09-12T01:45:52;15.10;99.90
19652;DHT22;9974;52.146;14.668;2023-09-12T01:48:22;14.70;99.90
19652;DHT22;9974;52.146;14.668;2023-09-12T01:50:52;15.50;99.90
19652;DHT22;9974;52.146;14.668;2023-09-12T01:53:18;15.60;99.90
19652;DHT22;9974;52.146;14.668;2023-09-12T01:55:45;15.00;99.90
19652;DHT22;9974;52.146;14.668;2023-09-12T01:58:12;15.00;99.90
19652;DHT22;9974;52.146;14.668;2023-09-12T02:00:39;15.10;99.90
19652;DHT22;9974;52.146;14.668;2023-09-12T02:03:05;15.30;99.90
19652;DHT22;9974;52.146;14.668;2023-09-12T02:05:31;14.90;99.90
19652;DHT22;9974;52.146;14.668;2023-09-12T02:07:57;14.70;99.90
19652;DHT22;9974;52.146;14.668;2023-09-12T02:10:25;15.20;99.90
19652;DHT22;9974;52.146;14.668;2023-09-12T02:12:51;14.70;99.90
19652;DHT22;9974;52.146;14.668;2023-09-12T02:15:16;14.80;99.90
19652;DHT22;9974;52.146;14.668;2023-09-12T02:17:42;16.00;99.90
19652;DHT22;9974;52.146;14.668;2023-09-12T02:20:09;15.30;99.90
19652;DHT22;9974;52.146;14.668;2023-09-12T02:22:35;15.40;99.90
19652;DHT22;9974;52.146;14.668;2023-09-12T02:25:02;15.80;99.90
19652;DHT22;9974;52.146;14.668;2023-09-12T02:27:30;15.50;99.90
19652;DHT22;9974;52.146;14.668;2023-09-12T02:29:55;15.40;99.90
19652;DHT22;9974;52.146;14.668;2023-09-12T02:32:21;16.00;99.90
19652;DHT22;9974;52.146;14.668;2023-09-12T02:34:46;15.60;99.90
19652;DHT22;9974;52.146;14.668;2023-09-12T02:37:12;15.70;99.90
19652;DHT22;9974;52.146;14.668;2023-09-12T02:39:38;15.50;99.90
19652;DHT22;9974;52.146;14.668;2023-09-12T02:42:04;15.80;99.90
19652;DHT22;9974;52.146;14.668;2023-09-12T02:44:29;15.10;99.90
19652;DHT22;9974;52.146;14.668;2023-09-12T02:46:55;15.70;99.90
19652;DHT22;9974;52.146;14.668;2023-09-12T02:49:21;14.90;99.90
19652;DHT22;9974;52.146;14.668;2023-09-12T02:51:46;15.00;99.90
19652;DHT22;9974;52.146;14.668;2023-09-12T02:54:12;15.30;99.90
19652;DHT22;9974;52.146;14.668;2023-09-12T02:56:38;14.40;99.90
19652;DHT22;9974;52.146;14.668;2023-09-12T02:59:03;14.80;99.90
19652;DHT22;9974;52.146;14.668;2023-09-12T03:01:30;15.20;99.90
19652;DHT22;9974;52.146;14.668;2023-09-12T03:03:56;14.90;99.90
19652;DHT22;9974;52.146;14.668;2023-09-12T03:06:22;15.00;99.90
19652;DHT22;9974;52.146;14.668;2023-09-12T03:08:48;14.90;99.90
19652;DHT22;9974;52.146;14.668;2023-09-12T03:11:14;14.80;99.90
19652;DHT22;9974;52.146;14.668;2023-09-12T03:13:40;14.80;99.90
19652;DHT22;9974;52.146;14.668;2023-09-12T03:16:10;15.20;99.90
19652;DHT22;9974;52.146;14.668;2023-09-12T03:18:36;14.90;99.90
19652;DHT22;9974;52.146;14.668;2023-09-12T03:21:02;15.10;99.90
19652;DHT22;9974;52.146;14.668;2023-09-12T03:23:28;14.20;99.90
19652;DHT22;9974;52.146;14.668;2023-09-12T03:25:54;14.40;99.90
19652;DHT22;9974;52.146;14.668;2023-09-12T03:28:19;14.80;99.90
19652;DHT22;9974;52.146;14.668;2023-09-12T03:30:45;14.30;99.90
19652;DHT22;9974;52.146;14.668;2023-09-12T03:33:48;15.30;99.90
19652;DHT22;9974;52.146;14.668;2023-09-12T03:36:16;15.10;99.90
19652;DHT22;9974;52.146;14.668;2023-09-12T03:38:42;14.40;99.90
19652;DHT22;9974;52.146;14.668;2023-09-12T03:41:08;15.00;99.90
19652;DHT22;9974;52.146;14.668;2023-09-12T03:43:34;14.70;99.90
19652;DHT22;9974;52.146;14.668;2023-09-12T03:45:59;14.90;99.90
19652;DHT22;9974;52.146;14.668;2023-09-12T03:48:25;14.50;99.90
19652;DHT22;9974;52.146;14.668;2023-09-12T03:50:51;14.80;99.90
19652;DHT22;9974;52.146;14.668;2023-09-12T03:53:17;14.30;99.90
19652;DHT22;9974;52.146;14.668;2023-09-12T03:55:43;14.80;99.90
19652;DHT22;9974;52.146;14.668;2023-09-12T04:00:35;14.80;99.90
19652;DHT22;9974;52.146;14.668;2023-09-12T04:03:00;14.80;99.90
19652;DHT22;9974;52.146;14.668;2023-09-12T04:05:26;14.60;99.90
19652;DHT22;9974;52.146;14.668;2023-09-12T04:10:21;15.00;99.90
19652;DHT22;9974;52.146;14.668;2023-09-12T04:12:47;14.60;99.90
19652;DHT22;9974;52.146;14.668;2023-09-12T04:15:12;15.00;99.90
19652;DHT22;9974;52.146;14.668;2023-09-12T04:17:38;14.90;99.90
19652;DHT22;9974;52.146;14.668;2023-09-12T04:20:04;15.00;99.90
19652;DHT22;9974;52.146;14.668;2023-09-12T04:22:30;14.60;99.90
19652;DHT22;9974;52.146;14.668;2023-09-12T04:27:22;14.50;99.90
19652;DHT22;9974;52.146;14.668;2023-09-12T04:32:14;14.60;99.90
19652;DHT22;9974;52.146;14.668;2023-09-12T04:34:42;14.30;99.90
19652;DHT22;9974;52.146;14.668;2023-09-12T04:37:08;14.40;99.90
19652;DHT22;9974;52.146;14.668;2023-09-12T04:39:34;14.50;99.90
19652;DHT22;9974;52.146;14.668;2023-09-12T04:41:59;13.70;99.90
19652;DHT22;9974;52.146;14.668;2023-09-12T04:44:25;13.50;99.90
19652;DHT22;9974;52.146;14.668;2023-09-12T04:46:51;14.30;99.90
19652;DHT22;9974;52.146;14.668;2023-09-12T04:49:16;14.00;99.90
19652;DHT22;9974;52.146;14.668;2023-09-12T04:51:42;14.30;99.90
19652;DHT22;9974;52.146;14.668;2023-09-12T04:54:08;14.00;99.90
19652;DHT22;9974;52.146;14.668;2023-09-12T04:56:34;14.00;99.90
19652;DHT22;9974;52.146;14.668;2023-09-12T04:59:00;14.20;99.90
19652;DHT22;9974;52.146;14.668;2023-09-12T05:01:25;13.70;99.90
19652;DHT22;9974;52.146;14.668;2023-09-12T05:03:51;13.30;99.90
19652;DHT22;9974;52.146;14.668;2023-09-12T05:06:17;14.20;99.90
19652;DHT22;9974;52.146;14.668;2023-09-12T05:08:42;13.60;99.90
19652;DHT22;9974;52.146;14.668;2023-09-12T05:11:09;13.80;99.90
19652;DHT22;9974;52.146;14.668;2023-09-12T05:13:34;13.50;99.90
19652;DHT22;9974;52.146;14.668;2023-09-12T05:16:00;14.30;99.90
19652;DHT22;9974;52.146;14.668;2023-09-12T05:18:26;13.80;99.90
19652;DHT22;9974;52.146;14.668;2023-09-12T05:20:51;13.80;99.90
19652;DHT22;9974;52.146;14.668;2023-09-12T05:23:17;14.50;99.90
19652;DHT22;9974;52.146;14.668;2023-09-12T05:25:43;14.40;99.90
19652;DHT22;9974;52.146;14.668;2023-09-12T05:28:08;14.40;99.90
19652;DHT22;9974;52.146;14.668;2023-09-12T05:30:34;14.10;99.90
19652;DHT22;9974;52.146;14.668;2023-09-12T05:33:00;14.40;99.90
19652;DHT22;9974;52.146;14.668;2023-09-12T05:35:26;14.70;99.90
19652;DHT22;9974;52.146;14.668;2023-09-12T05:37:51;14.20;99.90
19652;DHT22;9974;52.146;14.668;2023-09-12T05:40:18;14.60;99.90
19652;DHT22;9974;52.146;14.668;2023-09-12T05:42:44;14.80;99.90
19652;DHT22;9974;52.146;14.668;2023-09-12T05:45:10;14.10;99.90
19652;DHT22;9974;52.146;14.668;2023-09-12T05:47:35;15.00;99.90
19652;DHT22;9974;52.146;14.668;2023-09-12T05:50:01;14.90;99.90
19652;DHT22;9974;52.146;14.668;2023-09-12T05:52:30;15.00;99.90
19652;DHT22;9974;52.146;14.668;2023-09-12T05:54:56;14.90;99.90
19652;DHT22;9974;52.146;14.668;2023-09-12T05:57:22;15.00;99.90
19652;DHT22;9974;52.146;14.668;2023-09-12T05:59:47;15.40;99.90
19652;DHT22;9974;52.146;14.668;2023-09-12T06:02:13;15.40;99.90
19652;DHT22;9974;52.146;14.668;2023-09-12T06:04:39;15.10;99.90
19652;DHT22;9974;52.146;14.668;2023-09-12T06:07:04;15.10;99.90
19652;DHT22;9974;52.146;14.668;2023-09-12T06:09:30;15.60;99.90
19652;DHT22;9974;52.146;14.668;2023-09-12T06:11:56;15.20;99.90
19652;DHT22;9974;52.146;14.668;2023-09-12T06:14:22;16.20;99.90
19652;DHT22;9974;52.146;14.668;2023-09-12T06:16:48;15.40;99.90
19652;DHT22;9974;52.146;14.668;2023-09-12T06:19:13;15.50;99.90
19652;DHT22;9974;52.146;14.668;2023-09-12T06:21:40;15.40;99.90
19652;DHT22;9974;52.146;14.668;2023-09-12T06:26:38;15.80;99.90
19652;DHT22;9974;52.146;14.668;2023-09-12T06:29:05;15.90;99.90
19652;DHT22;9974;52.146;14.668;2023-09-12T06:31:31;16.40;99.90
19652;DHT22;9974;52.146;14.668;2023-09-12T06:33:57;16.30;99.90
19652;DHT22;9974;52.146;14.668;2023-09-12T06:36:24;16.70;99.90
19652;DHT22;9974;52.146;14.668;2023-09-12T06:38:50;16.30;99.90
19652;DHT22;9974;52.146;14.668;2023-09-12T06:41:19;16.70;99.90
19652;DHT22;9974;52.146;14.668;2023-09-12T06:43:45;17.10;99.90
19652;DHT22;9974;52.146;14.668;2023-09-12T06:46:10;17.30;99.90
19652;DHT22;9974;52.146;14.668;2023-09-12T06:48:36;17.30;99.90
19652;DHT22;9974;52.146;14.668;2023-09-12T06:51:05;18.10;99.90
19652;DHT22;9974;52.146;14.668;2023-09-12T06:53:31;17.70;99.90
19652;DHT22;9974;52.146;14.668;2023-09-12T06:55:57;17.40;99.90
19652;DHT22;9974;52.146;14.668;2023-09-12T06:58:24;17.90;99.90
19652;DHT22;9974;52.146;14.668;2023-09-12T07:00:50;17.70;99.90
19652;DHT22;9974;52.146;14.668;2023-09-12T07:03:16;17.90;99.90
19652;DHT22;9974;52.146;14.668;2023-09-12T07:05:42;18.20;99.90
19652;DHT22;9974;52.146;14.668;2023-09-12T07:08:08;18.20;99.90
19652;DHT22;9974;52.146;14.668;2023-09-12T07:10:34;18.40;99.90
19652;DHT22;9974;52.146;14.668;2023-09-12T07:12:59;19.00;99.90
19652;DHT22;9974;52.146;14.668;2023-09-12T07:15:25;18.50;99.90
19652;DHT22;9974;52.146;14.668;2023-09-12T07:17:51;18.90;99.90
19652;DHT22;9974;52.146;14.668;2023-09-12T07:20:17;19.00;99.90
19652;DHT22;9974;52.146;14.668;2023-09-12T07:22:43;18.80;99.90
19652;DHT22;9974;52.146;14.668;2023-09-12T07:27:37;19.40;99.90
19652;DHT22;9974;52.146;14.668;2023-09-12T07:30:05;20.00;99.90
19652;DHT22;9974;52.146;14.668;2023-09-12T07:32:32;19.80;99.90
19652;DHT22;9974;52.146;14.668;2023-09-12T07:34:58;19.80;99.90
19652;DHT22;9974;52.146;14.668;2023-09-12T07:37:24;20.30;99.90
19652;DHT22;9974;52.146;14.668;2023-09-12T07:39:49;20.30;99.90
19652;DHT22;9974;52.146;14.668;2023-09-12T07:42:15;20.40;99.90
19652;DHT22;9974;52.146;14.668;2023-09-12T07:44:41;20.50;99.90
19652;DHT22;9974;52.146;14.668;2023-09-12T07:49:33;21.40;99.90
19652;DHT22;9974;52.146;14.668;2023-09-12T07:51:59;21.50;99.90
19652;DHT22;9974;52.146;14.668;2023-09-12T07:56:50;21.90;99.90
19652;DHT22;9974;52.146;14.668;2023-09-12T07:59:16;22.10;99.90
19652;DHT22;9974;52.146;14.668;2023-09-12T08:01:42;22.70;99.90
19652;DHT22;9974;52.146;14.668;2023-09-12T08:04:07;22.40;99.90
19652;DHT22;9974;52.146;14.668;2023-09-12T08:06:33;22.40;99.90
19652;DHT22;9974;52.146;14.668;2023-09-12T08:08:59;22.40;99.90
19652;DHT22;9974;52.146;14.668;2023-09-12T08:11:25;23.00;99.90
19652;DHT22;9974;52.146;14.668;2023-09-12T08:13:52;22.90;99.90
19652;DHT22;9974;52.146;14.668;2023-09-12T08:16:18;23.30;99.90
19652;DHT22;9974;52.146;14.668;2023-09-12T08:18:43;24.00;99.90
19652;DHT22;9974;52.146;14.668;2023-09-12T08:21:10;24.20;99.90
19652;DHT22;9974;52.146;14.668;2023-09-12T08:26:02;24.60;99.90
19652;DHT22;9974;52.146;14.668;2023-09-12T08:28:28;24.60;99.90
19652;DHT22;9974;52.146;14.668;2023-09-12T08:30:53;24.70;99.90
19652;DHT22;9974;52.146;14.668;2023-09-12T08:33:19;24.90;99.90
19652;DHT22;9974;52.146;14.668;2023-09-12T08:38:11;26.70;99.90
19652;DHT22;9974;52.146;14.668;2023-09-12T08:40:37;26.90;99.90
19652;DHT22;9974;52.146;14.668;2023-09-12T08:43:03;27.10;99.90
19652;DHT22;9974;52.146;14.668;2023-09-12T08:45:29;26.60;99.90
19652;DHT22;9974;52.146;14.668;2023-09-12T08:47:58;26.70;99.90
19652;DHT22;9974;52.146;14.668;2023-09-12T08:50:25;26.80;99.90
19652;DHT22;9974;52.146;14.668;2023-09-12T08:52:56;26.80;99.90
19652;DHT22;9974;52.146;14.668;2023-09-12T08:55:21;26.80;99.90
19652;DHT22;9974;52.146;14.668;2023-09-12T08:57:50;27.00;99.90
19652;DHT22;9974;52.146;14.668;2023-09-12T09:00:16;26.90;99.90
19652;DHT22;9974;52.146;14.668;2023-09-12T09:02:43;27.10;99.90
19652;DHT22;9974;52.146;14.668;2023-09-12T09:05:10;27.30;99.90
19652;DHT22;9974;52.146;14.668;2023-09-12T09:07:38;27.50;99.90
19652;DHT22;9974;52.146;14.668;2023-09-12T09:10:06;27.50;99.90
19652;DHT22;9974;52.146;14.668;2023-09-12T09:12:33;27.80;99.90
19652;DHT22;9974;52.146;14.668;2023-09-12T09:15:23;28.20;99.90
19652;DHT22;9974;52.146;14.668;2023-09-12T09:17:51;28.70;99.90
19652;DHT22;9974;52.146;14.668;2023-09-12T09:20:22;29.40;99.90
19652;DHT22;9974;52.146;14.668;2023-09-12T09:22:56;30.20;99.90
19652;DHT22;9974;52.146;14.668;2023-09-12T09:25:23;30.70;99.90
19652;DHT22;9974;52.146;14.668;2023-09-12T09:27:49;31.00;99.90
19652;DHT22;9974;52.146;14.668;2023-09-12T09:30:14;30.70;99.90
19652;DHT22;9974;52.146;14.668;2023-09-12T09:32:40;31.00;99.90
19652;DHT22;9974;52.146;14.668;2023-09-12T09:35:06;31.00;99.90
19652;DHT22;9974;52.146;14.668;2023-09-12T09:37:33;31.00;99.90
19652;DHT22;9974;52.146;14.668;2023-09-12T09:39:59;31.70;99.90
19652;DHT22;9974;52.146;14.668;2023-09-12T09:42:28;31.90;99.90
19652;DHT22;9974;52.146;14.668;2023-09-12T09:44:54;31.20;99.90
19652;DHT22;9974;52.146;14.668;2023-09-12T09:49:46;31.20;99.60
19652;DHT22;9974;52.146;14.668;2023-09-12T09:52:12;31.00;99.90
19652;DHT22;9974;52.146;14.668;2023-09-12T09:54:43;31.20;99.90
19652;DHT22;9974;52.146;14.668;2023-09-12T09:57:10;31.20;98.90
19652;DHT22;9974;52.146;14.668;2023-09-12T09:59:36;31.40;99.90
19652;DHT22;9974;52.146;14.668;2023-09-12T10:02:03;31.50;99.90
19652;DHT22;9974;52.146;14.668;2023-09-12T10:04:31;31.70;97.50
19652;DHT22;9974;52.146;14.668;2023-09-12T10:06:57;31.40;95.80
19652;DHT22;9974;52.146;14.668;2023-09-12T10:09:26;31.00;96.80
19652;DHT22;9974;52.146;14.668;2023-09-12T10:11:54;30.90;97.00
19652;DHT22;9974;52.146;14.668;2023-09-12T10:14:22;31.40;98.70
19652;DHT22;9974;52.146;14.668;2023-09-12T10:16:49;31.90;98.30
19652;DHT22;9974;52.146;14.668;2023-09-12T10:19:24;32.20;97.40
19652;DHT22;9974;52.146;14.668;2023-09-12T10:24:35;32.60;95.80
19652;DHT22;9974;52.146;14.668;2023-09-12T10:27:03;33.20;95.60
19652;DHT22;9974;52.146;14.668;2023-09-12T10:29:29;33.40;93.20
19652;DHT22;9974;52.146;14.668;2023-09-12T10:31:56;33.50;93.20
19652;DHT22;9974;52.146;14.668;2023-09-12T10:34:24;33.70;92.40
19652;DHT22;9974;52.146;14.668;2023-09-12T10:36:51;33.50;92.50
19652;DHT22;9974;52.146;14.668;2023-09-12T10:39:19;34.00;92.10
19652;DHT22;9974;52.146;14.668;2023-09-12T10:41:46;33.80;83.10
19652;DHT22;9974;52.146;14.668;2023-09-12T10:44:16;33.50;78.70
19652;DHT22;9974;52.146;14.668;2023-09-12T10:46:44;33.20;80.90
19652;DHT22;9974;52.146;14.668;2023-09-12T10:49:12;32.70;77.30
19652;DHT22;9974;52.146;14.668;2023-09-12T10:51:40;32.90;77.30
19652;DHT22;9974;52.146;14.668;2023-09-12T10:54:07;32.90;78.50
19652;DHT22;9974;52.146;14.668;2023-09-12T10:56:33;33.00;78.60
19652;DHT22;9974;52.146;14.668;2023-09-12T11:01:30;33.40;77.20
19652;DHT22;9974;52.146;14.668;2023-09-12T11:06:29;33.50;74.90
19652;DHT22;9974;52.146;14.668;2023-09-12T11:11:40;33.50;73.60
19652;DHT22;9974;52.146;14.668;2023-09-12T11:14:07;33.80;72.50
19652;DHT22;9974;52.146;14.668;2023-09-12T11:16:33;34.30;73.60
19652;DHT22;9974;52.146;14.668;2023-09-12T11:19:20;34.70;71.90
19652;DHT22;9974;52.146;14.668;2023-09-12T11:21:52;34.90;71.20
19652;DHT22;9974;52.146;14.668;2023-09-12T11:24:19;34.80;71.00
19652;DHT22;9974;52.146;14.668;2023-09-12T11:26:59;35.10;69.20
19652;DHT22;9974;52.146;14.668;2023-09-12T11:29:37;35.30;71.20
19652;DHT22;9974;52.146;14.668;2023-09-12T11:32:04;35.70;67.40
19652;DHT22;9974;52.146;14.668;2023-09-12T11:34:45;35.70;67.80
19652;DHT22;9974;52.146;14.668;2023-09-12T11:37:23;35.90;65.60
19652;DHT22;9974;52.146;14.668;2023-09-12T11:39:50;36.10;66.80
19652;DHT22;9974;52.146;14.668;2023-09-12T11:42:16;36.40;65.50
19652;DHT22;9974;52.146;14.668;2023-09-12T11:44:42;36.50;63.40
19652;DHT22;9974;52.146;14.668;2023-09-12T11:47:10;36.20;64.30
19652;DHT22;9974;52.146;14.668;2023-09-12T11:49:37;36.30;61.70
19652;DHT22;9974;52.146;14.668;2023-09-12T11:52:07;36.40;63.00
19652;DHT22;9974;52.146;14.668;2023-09-12T11:54:34;36.20;61.90
19652;DHT22;9974;52.146;14.668;2023-09-12T11:57:02;36.00;60.00
19652;DHT22;9974;52.146;14.668;2023-09-12T11:59:31;35.60;61.80
19652;DHT22;9974;52.146;14.668;2023-09-12T12:01:57;35.70;62.00
19652;DHT22;9974;52.146;14.668;2023-09-12T12:04:24;35.60;62.50
19652;DHT22;9974;52.146;14.668;2023-09-12T12:06:51;35.80;62.10
19652;DHT22;9974;52.146;14.668;2023-09-12T12:09:18;35.70;60.70
19652;DHT22;9974;52.146;14.668;2023-09-12T12:11:48;35.40;60.20
19652;DHT22;9974;52.146;14.668;2023-09-12T12:14:16;35.30;60.50
19652;DHT22;9974;52.146;14.668;2023-09-12T12:16:43;34.90;60.60
19652;DHT22;9974;52.146;14.668;2023-09-12T12:19:10;34.90;62.80
19652;DHT22;9974;52.146;14.668;2023-09-12T12:21:37;34.50;62.10
19652;DHT22;9974;52.146;14.668;2023-09-12T12:24:04;34.40;62.00
19652;DHT22;9974;52.146;14.668;2023-09-12T12:26:32;34.40;62.60
19652;DHT22;9974;52.146;14.668;2023-09-12T12:29:00;34.90;62.50
19652;DHT22;9974;52.146;14.668;2023-09-12T12:31:26;34.70;62.10
19652;DHT22;9974;52.146;14.668;2023-09-12T12:33:56;34.80;62.60
19652;DHT22;9974;52.146;14.668;2023-09-12T12:36:23;34.70;61.00
19652;DHT22;9974;52.146;14.668;2023-09-12T12:38:50;34.40;61.00
19652;DHT22;9974;52.146;14.668;2023-09-12T12:41:21;33.90;60.80
19652;DHT22;9974;52.146;14.668;2023-09-12T12:43:50;33.90;60.90
19652;DHT22;9974;52.146;14.668;2023-09-12T12:46:17;33.80;61.10
19652;DHT22;9974;52.146;14.668;2023-09-12T12:48:45;33.80;62.30
19652;DHT22;9974;52.146;14.668;2023-09-12T12:51:16;33.70;60.00
19652;DHT22;9974;52.146;14.668;2023-09-12T12:53:49;33.10;61.10
19652;DHT22;9974;52.146;14.668;2023-09-12T12:56:18;33.30;62.60
19652;DHT22;9974;52.146;14.668;2023-09-12T12:58:56;33.30;62.50
19652;DHT22;9974;52.146;14.668;2023-09-12T13:01:24;33.10;62.40
19652;DHT22;9974;52.146;14.668;2023-09-12T13:03:50;32.90;63.60
19652;DHT22;9974;52.146;14.668;2023-09-12T13:06:17;33.00;63.20
19652;DHT22;9974;52.146;14.668;2023-09-12T13:08:44;33.20;64.20
19652;DHT22;9974;52.146;14.668;2023-09-12T13:11:11;33.10;64.60
19652;DHT22;9974;52.146;14.668;2023-09-12T13:13:38;33.10;64.10
19652;DHT22;9974;52.146;14.668;2023-09-12T13:16:05;33.10;64.20
19652;DHT22;9974;52.146;14.668;2023-09-12T13:18:35;33.00;65.50
19652;DHT22;9974;52.146;14.668;2023-09-12T13:21:01;33.20;64.70
19652;DHT22;9974;52.146;14.668;2023-09-12T13:23:28;32.80;64.70
19652;DHT22;9974;52.146;14.668;2023-09-12T13:25:54;32.70;63.50
19652;DHT22;9974;52.146;14.668;2023-09-12T13:28:20;32.20;63.70
19652;DHT22;9974;52.146;14.668;2023-09-12T13:30:46;32.10;64.30
19652;DHT22;9974;52.146;14.668;2023-09-12T13:33:12;31.70;63.60
19652;DHT22;9974;52.146;14.668;2023-09-12T13:35:41;31.70;63.90
19652;DHT22;9974;52.146;14.668;2023-09-12T13:38:06;31.70;65.00
19652;DHT22;9974;52.146;14.668;2023-09-12T13:40:41;31.70;64.90
19652;DHT22;9974;52.146;14.668;2023-09-12T13:43:07;31.90;64.40
19652;DHT22;9974;52.146;14.668;2023-09-12T13:45:34;31.70;64.20
19652;DHT22;9974;52.146;14.668;2023-09-12T13:48:00;31.40;64.20
19652;DHT22;9974;52.146;14.668;2023-09-12T13:50:27;31.30;65.00
19652;DHT22;9974;52.146;14.668;2023-09-12T13:52:58;31.30;65.00
19652;DHT22;9974;52.146;14.668;2023-09-12T13:55:25;31.30;65.70
19652;DHT22;9974;52.146;14.668;2023-09-12T13:57:51;31.20;64.70
19652;DHT22;9974;52.146;14.668;2023-09-12T14:00:17;31.20;65.50
19652;DHT22;9974;52.146;14.668;2023-09-12T14:02:43;31.10;66.40
19652;DHT22;9974;52.146;14.668;2023-09-12T14:05:11;31.10;66.70
19652;DHT22;9974;52.146;14.668;2023-09-12T14:07:37;31.20;66.60
19652;DHT22;9974;52.146;14.668;2023-09-12T14:10:08;31.20;67.70
19652;DHT22;9974;52.146;14.668;2023-09-12T14:12:34;31.30;67.30
19652;DHT22;9974;52.146;14.668;2023-09-12T14:15:00;31.40;65.70
19652;DHT22;9974;52.146;14.668;2023-09-12T14:17:26;31.10;66.70
19652;DHT22;9974;52.146;14.668;2023-09-12T14:19:53;31.40;67.20
19652;DHT22;9974;52.146;14.668;2023-09-12T14:22:19;31.20;67.00
19652;DHT22;9974;52.146;14.668;2023-09-12T14:27:12;31.10;68.50
19652;DHT22;9974;52.146;14.668;2023-09-12T14:29:38;31.00;68.50
19652;DHT22;9974;52.146;14.668;2023-09-12T14:34:30;30.80;70.90
19652;DHT22;9974;52.146;14.668;2023-09-12T14:36:58;30.70;69.00
19652;DHT22;9974;52.146;14.668;2023-09-12T14:39:25;30.60;69.00
19652;DHT22;9974;52.146;14.668;2023-09-12T14:41:51;30.60;69.40
19652;DHT22;9974;52.146;14.668;2023-09-12T14:44:24;30.50;69.60
19652;DHT22;9974;52.146;14.668;2023-09-12T14:49:16;30.40;68.00
19652;DHT22;9974;52.146;14.668;2023-09-12T14:51:43;30.30;68.60
19652;DHT22;9974;52.146;14.668;2023-09-12T14:54:09;30.40;69.10
19652;DHT22;9974;52.146;14.668;2023-09-12T14:56:35;30.40;70.40
19652;DHT22;9974;52.146;14.668;2023-09-12T14:59:01;30.40;69.40
19652;DHT22;9974;52.146;14.668;2023-09-12T15:03:55;30.60;65.80
19652;DHT22;9974;52.146;14.668;2023-09-12T15:06:21;30.40;67.40
19652;DHT22;9974;52.146;14.668;2023-09-12T15:08:47;29.90;69.00
19652;DHT22;9974;52.146;14.668;2023-09-12T15:11:14;30.50;69.90
19652;DHT22;9974;52.146;14.668;2023-09-12T15:13:39;30.50;69.90
19652;DHT22;9974;52.146;14.668;2023-09-12T15:16:05;30.50;69.70
19652;DHT22;9974;52.146;14.668;2023-09-12T15:18:31;30.40;70.00
19652;DHT22;9974;52.146;14.668;2023-09-12T15:20:57;30.30;70.00
19652;DHT22;9974;52.146;14.668;2023-09-12T15:23:23;30.30;69.70
19652;DHT22;9974;52.146;14.668;2023-09-12T15:25:50;30.30;69.10
19652;DHT22;9974;52.146;14.668;2023-09-12T15:28:15;30.30;69.50
19652;DHT22;9974;52.146;14.668;2023-09-12T15:33:07;30.20;67.90
19652;DHT22;9974;52.146;14.668;2023-09-12T15:35:33;30.30;68.40
19652;DHT22;9974;52.146;14.668;2023-09-12T15:37:59;30.20;69.80
19652;DHT22;9974;52.146;14.668;2023-09-12T15:40:26;30.10;69.10
19652;DHT22;9974;52.146;14.668;2023-09-12T15:42:52;30.00;69.30
19652;DHT22;9974;52.146;14.668;2023-09-12T15:45:17;29.90;69.30
19652;DHT22;9974;52.146;14.668;2023-09-12T15:50:11;29.80;69.80
19652;DHT22;9974;52.146;14.668;2023-09-12T15:55:11;29.80;69.90
19652;DHT22;9974;52.146;14.668;2023-09-12T15:57:38;29.80;71.10
19652;DHT22;9974;52.146;14.668;2023-09-12T16:02:41;29.70;71.30
19652;DHT22;9974;52.146;14.668;2023-09-12T16:05:07;29.60;72.10
19652;DHT22;9974;52.146;14.668;2023-09-12T16:07:34;29.60;72.50
19652;DHT22;9974;52.146;14.668;2023-09-12T16:09:59;29.30;75.40
19652;DHT22;9974;52.146;14.668;2023-09-12T16:12:28;29.40;74.70
19652;DHT22;9974;52.146;14.668;2023-09-12T16:14:54;29.20;75.90
19652;DHT22;9974;52.146;14.668;2023-09-12T16:17:24;29.00;76.50
19652;DHT22;9974;52.146;14.668;2023-09-12T16:19:51;28.80;76.30
19652;DHT22;9974;52.146;14.668;2023-09-12T16:22:17;28.80;76.70
19652;DHT22;9974;52.146;14.668;2023-09-12T16:24:42;28.70;77.50
19652;DHT22;9974;52.146;14.668;2023-09-12T16:27:08;28.50;78.30
19652;DHT22;9974;52.146;14.668;2023-09-12T16:29:34;28.50;78.70
19652;DHT22;9974;52.146;14.668;2023-09-12T16:32:01;28.20;79.60
19652;DHT22;9974;52.146;14.668;2023-09-12T16:34:28;28.40;80.70
19652;DHT22;9974;52.146;14.668;2023-09-12T16:36:53;28.50;80.80
19652;DHT22;9974;52.146;14.668;2023-09-12T16:39:19;27.90;81.10